Time;durP1;ratioP1;P1;durP2;ratioP2;P2;SDS_P1;SDS_P2;PMS_P1;PMS_P2;Temp;Humidity;BMP_temperature;BMP_pressure;BME280_temperature;BME280_humidity;BME280_pressure;Samples;Min_cycle;Max_cycle;Signal;HPM_P1;HPM_P2
2023/08/01 00:00:38;;;;;;;9.00;4.93;;;18.30;99.90;;;;;;4989017;28;20897;-65
2023/08/01 00:03:05;;;;;;;5.50;4.47;;;18.30;99.90;;;;;;4988963;28;20480;-65
2023/08/01 00:05:32;;;;;;;6.07;5.57;;;18.30;99.90;;;;;;4988841;28;20451;-66
2023/08/01 00:07:58;;;;;;;6.03;4.73;;;18.30;99.90;;;;;;4988869;28;21034;-65
2023/08/01 00:10:27;;;;;;;5.63;5.13;;;18.20;99.90;;;;;;4992168;28;20489;-66
2023/08/01 00:12:53;;;;;;;6.73;5.70;;;18.30;99.90;;;;;;4992001;28;20460;-65
2023/08/01 00:15:20;;;;;;;7.23;4.70;;;18.20;99.90;;;;;;4992312;28;20537;-66
2023/08/01 00:17:47;;;;;;;5.57;5.07;;;18.20;99.90;;;;;;4988785;28;20478;-66
2023/08/01 00:20:14;;;;;;;4.37;4.07;;;18.20;99.90;;;;;;4986753;28;20457;-66
2023/08/01 00:22:41;;;;;;;4.90;4.40;;;18.20;99.90;;;;;;4992069;28;20473;-66
2023/08/01 00:25:08;;;;;;;7.00;5.13;;;18.20;99.90;;;;;;4991984;28;21082;-65
2023/08/01 00:27:36;;;;;;;10.93;6.07;;;18.20;99.90;;;;;;4991649;28;20458;-66
2023/08/01 00:30:04;;;;;;;5.20;4.70;;;18.20;99.90;;;;;;4992320;28;20504;-66
2023/08/01 00:32:31;;;;;;;6.40;4.67;;;18.20;99.90;;;;;;4991739;28;20538;-65
2023/08/01 00:34:57;;;;;;;5.33;4.73;;;18.20;99.90;;;;;;4991981;28;20477;-66
2023/08/01 00:37:24;;;;;;;5.93;5.30;;;18.20;99.90;;;;;;4990976;28;20465;-65
2023/08/01 00:39:51;;;;;;;7.97;5.30;;;18.20;99.90;;;;;;4991579;28;20544;-66
2023/08/01 00:42:18;;;;;;;5.87;4.83;;;18.20;99.90;;;;;;4991854;28;20832;-66
2023/08/01 00:44:47;;;;;;;6.77;6.10;;;18.10;99.90;;;;;;4991604;28;20484;-66
2023/08/01 00:47:14;;;;;;;6.83;6.10;;;18.20;99.90;;;;;;4990070;28;20465;-66
2023/08/01 00:49:41;;;;;;;6.90;5.43;;;18.10;99.90;;;;;;4991694;28;20453;-66
2023/08/01 00:52:09;;;;;;;6.93;5.80;;;18.10;99.90;;;;;;4991956;28;20482;-66
2023/08/01 00:54:36;;;;;;;8.60;5.50;;;18.10;99.90;;;;;;4991811;28;20570;-66
2023/08/01 00:57:04;;;;;;;7.70;5.03;;;18.10;99.90;;;;;;4991081;28;20469;-66
2023/08/01 00:59:31;;;;;;;6.53;5.10;;;18.00;99.90;;;;;;4991748;28;20457;-65
2023/08/01 01:02:00;;;;;;;9.87;5.43;;;18.00;99.90;;;;;;4991697;28;20481;-65
2023/08/01 01:04:27;;;;;;;6.23;5.57;;;18.00;99.90;;;;;;4991531;28;20473;-65
2023/08/01 01:07:00;;;;;;;6.07;5.47;;;17.90;99.90;;;;;;4990959;28;21018;-65
2023/08/01 01:09:31;;;;;;;7.63;6.80;;;17.90;99.90;;;;;;4991378;28;20959;-65
2023/08/01 01:11:58;;;;;;;6.40;5.80;;;17.80;99.90;;;;;;4991286;28;20493;-65
2023/08/01 01:14:25;;;;;;;5.97;5.33;;;17.80;99.90;;;;;;4990995;28;20556;-65
2023/08/01 01:16:52;;;;;;;6.97;5.83;;;17.90;99.90;;;;;;4990329;28;20461;-65
2023/08/01 01:19:20;;;;;;;7.37;5.50;;;17.80;99.90;;;;;;4990262;28;20454;-65
2023/08/01 01:21:50;;;;;;;8.27;5.63;;;17.80;99.90;;;;;;4991387;28;20460;-65
2023/08/01 01:24:19;;;;;;;7.63;5.53;;;17.70;99.90;;;;;;4991407;28;20927;-65
2023/08/01 01:26:47;;;;;;;8.20;6.50;;;17.80;99.90;;;;;;4990613;28;20478;-66
2023/08/01 01:29:15;;;;;;;7.20;5.67;;;17.80;99.90;;;;;;4990959;28;20457;-65
2023/08/01 01:31:42;;;;;;;8.97;5.90;;;17.80;99.90;;;;;;4991284;28;20588;-65
2023/08/01 01:34:10;;;;;;;6.97;5.83;;;17.80;99.90;;;;;;4990762;28;20930;-65
2023/08/01 01:36:37;;;;;;;6.33;5.67;;;17.80;99.90;;;;;;4989953;28;20469;-65
2023/08/01 01:39:05;;;;;;;6.20;5.17;;;17.70;99.90;;;;;;4990889;28;20457;-65
2023/08/01 01:41:32;;;;;;;6.33;5.50;;;17.80;99.90;;;;;;4990786;28;20505;-65
2023/08/01 01:43:58;;;;;;;8.80;5.20;;;17.80;99.90;;;;;;4990469;28;20556;-65
2023/08/01 01:46:25;;;;;;;11.33;6.10;;;17.80;99.90;;;;;;4989242;28;20457;-65
2023/08/01 01:48:52;;;;;;;8.83;6.80;;;17.80;99.90;;;;;;4990983;28;20459;-65
2023/08/01 01:51:20;;;;;;;8.90;6.47;;;17.80;99.90;;;;;;4990905;28;20937;-65
2023/08/01 01:53:47;;;;;;;6.57;5.90;;;17.80;99.90;;;;;;4990986;28;20514;-65
2023/08/01 01:56:15;;;;;;;8.40;5.93;;;17.80;99.90;;;;;;4990124;28;20464;-65
2023/08/01 01:58:42;;;;;;;9.27;6.37;;;17.70;99.90;;;;;;4990928;28;21090;-65
2023/08/01 02:01:08;;;;;;;7.70;5.57;;;17.70;99.90;;;;;;4990788;28;20450;-65
2023/08/01 02:03:35;;;;;;;6.33;5.70;;;17.70;99.90;;;;;;4990433;28;20564;-65
2023/08/01 02:06:03;;;;;;;6.97;6.07;;;17.80;99.90;;;;;;4989748;28;20458;-65
2023/08/01 02:08:30;;;;;;;7.70;6.63;;;17.80;99.90;;;;;;4990216;28;20461;-65
2023/08/01 02:10:58;;;;;;;11.23;6.43;;;17.80;99.90;;;;;;4990506;28;20870;-65
2023/08/01 02:13:28;;;;;;;6.90;5.97;;;17.80;99.90;;;;;;4990487;28;20484;-65
2023/08/01 02:15:55;;;;;;;8.10;6.27;;;17.80;99.90;;;;;;4989901;28;20984;-65
2023/08/01 02:18:22;;;;;;;7.23;6.47;;;17.70;99.90;;;;;;4990500;28;20459;-65
2023/08/01 02:20:49;;;;;;;7.60;6.63;;;17.70;99.90;;;;;;4990395;28;20449;-65
2023/08/01 02:23:15;;;;;;;6.77;5.57;;;17.70;99.90;;;;;;4989960;28;20472;-65
2023/08/01 02:25:43;;;;;;;6.93;5.70;;;17.70;99.90;;;;;;4990297;28;20540;-65
2023/08/01 02:28:10;;;;;;;8.40;5.63;;;17.70;99.90;;;;;;4989478;28;20813;-65
2023/08/01 02:30:38;;;;;;;6.60;5.83;;;17.70;99.90;;;;;;4989709;28;20560;-65
2023/08/01 02:33:05;;;;;;;7.27;6.17;;;17.70;99.90;;;;;;4989647;28;20503;-65
2023/08/01 02:35:32;;;;;;;10.20;5.80;;;17.70;99.90;;;;;;4989683;28;20456;-65
2023/08/01 02:37:59;;;;;;;8.53;6.33;;;17.70;99.90;;;;;;4989317;28;20469;-65
2023/08/01 02:40:26;;;;;;;7.20;6.60;;;17.70;99.90;;;;;;4989726;28;20542;-65
2023/08/01 02:42:53;;;;;;;6.27;5.67;;;17.70;99.90;;;;;;4989646;28;20457;-65
2023/08/01 02:45:20;;;;;;;11.90;5.93;;;17.70;99.90;;;;;;4989828;28;20563;-65
2023/08/01 02:47:48;;;;;;;6.43;5.80;;;17.70;99.90;;;;;;4988112;28;20454;-65
2023/08/01 02:50:15;;;;;;;6.73;5.60;;;17.70;99.90;;;;;;4990012;28;20449;-65
2023/08/01 02:52:42;;;;;;;6.77;5.63;;;17.70;99.90;;;;;;4989581;28;20494;-65
2023/08/01 02:55:09;;;;;;;5.70;5.20;;;17.70;99.90;;;;;;4989569;28;20817;-65
2023/08/01 02:57:36;;;;;;;8.10;6.87;;;17.60;99.90;;;;;;4988765;28;20450;-65
2023/08/01 03:00:05;;;;;;;9.70;6.50;;;17.70;99.90;;;;;;4983379;28;20553;-65
2023/08/01 03:02:32;;;;;;;7.70;6.90;;;17.60;99.90;;;;;;4978550;28;21208;-65
2023/08/01 03:05:00;;;;;;;7.87;5.90;;;17.60;99.90;;;;;;4989414;28;20556;-65
2023/08/01 03:07:27;;;;;;;7.90;6.37;;;17.60;99.90;;;;;;4988856;28;20449;-66
2023/08/01 03:09:55;;;;;;;10.83;6.30;;;17.60;99.90;;;;;;4989477;28;20480;-66
2023/08/01 03:12:22;;;;;;;5.70;5.10;;;17.60;99.90;;;;;;4979455;28;20532;-65
2023/08/01 03:14:48;;;;;;;6.13;5.30;;;17.60;99.90;;;;;;4988704;28;20476;-65
2023/08/01 03:17:16;;;;;;;11.30;5.70;;;17.60;99.90;;;;;;4988667;28;20453;-66
2023/08/01 03:19:43;;;;;;;7.50;5.60;;;17.60;99.90;;;;;;4989460;28;20482;-65
2023/08/01 03:22:12;;;;;;;5.93;5.27;;;17.60;99.90;;;;;;4989029;28;20541;-65
2023/08/01 03:24:39;;;;;;;6.40;4.83;;;17.60;99.90;;;;;;4988868;28;20484;-66
2023/08/01 03:27:06;;;;;;;5.67;5.20;;;17.60;99.90;;;;;;4988229;28;21040;-65
2023/08/01 03:29:33;;;;;;;5.73;5.00;;;17.60;99.90;;;;;;4989419;28;20536;-65
2023/08/01 03:32:00;;;;;;;5.33;4.90;;;17.60;99.90;;;;;;4988683;28;21047;-65
2023/08/01 03:34:27;;;;;;;7.13;5.57;;;17.60;99.90;;;;;;4982054;28;20477;-66
2023/08/01 03:36:54;;;;;;;11.20;5.83;;;17.60;99.90;;;;;;4972531;28;20453;-65
2023/08/01 03:39:22;;;;;;;6.27;5.77;;;17.60;99.90;;;;;;4989000;28;20821;-65
2023/08/01 03:41:49;;;;;;;7.60;5.40;;;17.60;99.90;;;;;;4988851;28;20464;-65
2023/08/01 03:44:16;;;;;;;7.07;4.53;;;17.60;99.90;;;;;;4992409;28;20473;-65
2023/08/01 03:46:43;;;;;;;5.40;4.90;;;17.60;99.90;;;;;;4991034;28;20457;-65
2023/08/01 03:49:10;;;;;;;7.57;6.43;;;17.50;99.90;;;;;;4989327;28;20453;-65
2023/08/01 03:51:37;;;;;;;10.60;4.10;;;17.50;99.90;;;;;;4992763;28;20574;-65
2023/08/01 03:54:04;;;;;;;5.53;4.73;;;17.50;99.90;;;;;;4992691;28;20559;-65
2023/08/01 03:56:32;;;;;;;6.83;5.00;;;17.50;99.90;;;;;;4991768;28;20452;-65
2023/08/01 03:58:59;;;;;;;5.60;5.10;;;17.50;99.90;;;;;;4992768;28;20464;-65
2023/08/01 04:01:26;;;;;;;5.30;4.73;;;17.50;99.90;;;;;;4992412;28;20460;-65
2023/08/01 04:03:52;;;;;;;8.30;5.47;;;17.50;99.90;;;;;;4992359;28;20471;-65
2023/08/01 04:06:19;;;;;;;6.10;4.90;;;17.50;99.90;;;;;;4991582;28;20452;-65
2023/08/01 04:08:46;;;;;;;4.70;4.40;;;17.60;99.90;;;;;;4992332;28;20460;-65
2023/08/01 04:11:13;;;;;;;6.20;5.00;;;17.50;99.90;;;;;;4992406;28;20552;-65
2023/08/01 04:13:41;;;;;;;6.20;5.70;;;17.50;99.90;;;;;;4992536;28;20582;-65
2023/08/01 04:16:08;;;;;;;6.53;5.93;;;17.50;99.90;;;;;;4991707;28;20461;-65
2023/08/01 04:18:35;;;;;;;6.40;5.10;;;17.50;99.90;;;;;;4992350;28;21150;-65
2023/08/01 04:21:01;;;;;;;7.67;6.97;;;17.60;99.90;;;;;;4992156;28;20551;-66
2023/08/01 04:23:28;;;;;;;8.03;6.10;;;17.50;99.90;;;;;;4992276;28;20854;-65
2023/08/01 04:25:55;;;;;;;7.20;6.60;;;17.50;99.90;;;;;;4991665;28;20457;-66
2023/08/01 04:28:22;;;;;;;6.60;5.90;;;17.60;99.90;;;;;;4982939;28;20982;-65
2023/08/01 04:30:53;;;;;;;9.30;6.80;;;17.50;99.90;;;;;;4991806;28;21021;-65
2023/08/01 04:33:20;;;;;;;6.83;6.23;;;17.60;99.90;;;;;;4991975;28;20872;-65
2023/08/01 04:35:49;;;;;;;10.20;7.93;;;17.50;99.90;;;;;;4992065;28;20544;-66
2023/08/01 04:38:15;;;;;;;7.67;6.63;;;17.50;99.90;;;;;;4991948;28;20558;-66
2023/08/01 04:40:42;;;;;;;7.30;5.90;;;17.50;99.90;;;;;;4992198;28;20451;-66
2023/08/01 04:43:09;;;;;;;6.70;6.00;;;17.50;99.90;;;;;;4991804;28;20479;-66
2023/08/01 04:45:37;;;;;;;8.50;6.57;;;17.50;99.90;;;;;;4991159;28;20771;-66
2023/08/01 04:48:05;;;;;;;7.77;7.07;;;17.50;99.90;;;;;;4990731;28;21339;-65
2023/08/01 04:50:32;;;;;;;8.07;7.27;;;17.50;99.90;;;;;;4991708;28;20452;-66
2023/08/01 04:52:59;;;;;;;9.23;7.50;;;17.50;99.90;;;;;;4991690;28;20561;-66
2023/08/01 04:55:26;;;;;;;11.53;7.30;;;17.60;99.90;;;;;;4991355;28;20457;-66
2023/08/01 04:57:52;;;;;;;7.73;5.83;;;17.60;99.90;;;;;;4990753;28;20457;-66
2023/08/01 05:00:19;;;;;;;7.40;6.70;;;17.60;99.90;;;;;;4991427;28;20461;-66
2023/08/01 05:02:46;;;;;;;7.67;5.87;;;17.60;99.90;;;;;;4991216;28;20460;-66
2023/08/01 05:05:15;;;;;;;7.20;5.90;;;17.60;99.90;;;;;;4991687;28;20448;-66
2023/08/01 05:07:42;;;;;;;6.33;5.87;;;17.60;99.90;;;;;;4990416;28;20540;-66
2023/08/01 05:10:10;;;;;;;7.13;5.50;;;17.60;99.90;;;;;;4990876;28;20463;-66
2023/08/01 05:12:37;;;;;;;4.87;4.37;;;17.50;99.90;;;;;;4991195;28;20495;-66
2023/08/01 05:15:04;;;;;;;5.70;5.10;;;17.50;99.90;;;;;;4991728;28;20460;-65
2023/08/01 05:17:31;;;;;;;5.27;4.83;;;17.50;99.90;;;;;;4990757;28;20478;-66
2023/08/01 05:19:58;;;;;;;5.50;5.00;;;17.50;99.90;;;;;;4991210;28;20456;-66
2023/08/01 05:22:26;;;;;;;4.67;4.27;;;17.50;99.90;;;;;;4991139;28;20932;-66
2023/08/01 05:24:53;;;;;;;5.77;5.27;;;17.50;99.90;;;;;;4991051;28;20507;-66
2023/08/01 05:27:20;;;;;;;4.93;4.53;;;17.50;99.90;;;;;;4990287;28;20452;-66
2023/08/01 05:29:47;;;;;;;5.30;4.90;;;17.50;99.90;;;;;;4991334;28;20466;-66
2023/08/01 05:32:13;;;;;;;5.87;5.30;;;17.50;99.90;;;;;;4991082;28;20968;-66
2023/08/01 05:34:40;;;;;;;4.83;4.43;;;17.50;99.90;;;;;;4991097;28;20476;-66
2023/08/01 05:37:07;;;;;;;7.37;5.10;;;17.50;99.90;;;;;;4990316;28;20828;-66
2023/08/01 05:39:35;;;;;;;5.63;4.50;;;17.40;99.90;;;;;;4991169;28;20550;-66
2023/08/01 05:42:02;;;;;;;6.40;5.00;;;17.40;99.90;;;;;;4990730;28;20878;-66
2023/08/01 05:44:29;;;;;;;5.17;4.50;;;17.40;99.90;;;;;;4990665;28;20851;-66
2023/08/01 05:46:56;;;;;;;7.93;4.53;;;17.50;99.90;;;;;;4989248;28;20458;-66
2023/08/01 05:49:23;;;;;;;5.20;4.80;;;17.50;99.90;;;;;;4990739;28;20812;-66
2023/08/01 05:51:50;;;;;;;6.40;5.80;;;17.50;99.90;;;;;;4990547;28;20455;-66
2023/08/01 05:54:16;;;;;;;5.97;4.57;;;17.50;99.90;;;;;;4990152;28;20912;-66
2023/08/01 05:56:45;;;;;;;5.63;5.03;;;17.50;99.90;;;;;;4989826;28;20459;-66
2023/08/01 05:59:12;;;;;;;6.23;4.90;;;17.50;99.90;;;;;;4990725;28;20445;-66
2023/08/01 06:01:38;;;;;;;10.50;5.23;;;17.50;99.90;;;;;;4990617;28;20506;-66
2023/08/01 06:04:05;;;;;;;6.03;5.50;;;17.50;99.90;;;;;;4990430;28;21044;-66
2023/08/01 06:06:32;;;;;;;9.07;5.47;;;17.50;99.90;;;;;;4989107;28;20452;-66
2023/08/01 06:08:59;;;;;;;5.57;5.03;;;17.50;99.90;;;;;;4990323;28;20836;-66
2023/08/01 06:11:26;;;;;;;6.80;4.67;;;17.60;99.90;;;;;;4990373;28;20460;-67
2023/08/01 06:13:54;;;;;;;5.10;4.70;;;17.60;99.90;;;;;;4990223;28;20554;-66
2023/08/01 06:16:21;;;;;;;4.87;4.43;;;17.60;99.90;;;;;;4989619;28;20457;-66
2023/08/01 06:18:48;;;;;;;6.10;4.40;;;17.60;99.90;;;;;;4990156;28;20903;-66
2023/08/01 06:21:15;;;;;;;5.70;5.20;;;17.60;99.90;;;;;;4989995;28;21207;-66
2023/08/01 06:23:42;;;;;;;5.67;4.30;;;17.60;99.90;;;;;;4989922;28;20475;-66
2023/08/01 06:26:09;;;;;;;4.53;4.13;;;17.60;99.90;;;;;;4989527;28;20544;-65
2023/08/01 06:28:36;;;;;;;8.67;4.43;;;17.50;99.90;;;;;;4990338;28;20462;-66
2023/08/01 06:31:04;;;;;;;7.20;4.77;;;17.50;99.90;;;;;;4989996;28;21029;-65
2023/08/01 06:33:31;;;;;;;5.63;5.00;;;17.40;99.90;;;;;;4989547;28;20598;-65
2023/08/01 06:35:58;;;;;;;4.73;4.33;;;17.40;99.90;;;;;;4988694;28;20462;-66
2023/08/01 06:38:24;;;;;;;3.90;3.60;;;17.40;99.90;;;;;;4990139;28;20483;-65
2023/08/01 06:40:51;;;;;;;4.03;3.73;;;17.40;99.90;;;;;;4989754;28;20468;-65
2023/08/01 06:43:18;;;;;;;4.10;3.70;;;17.40;99.90;;;;;;4990009;28;20496;-65
2023/08/01 06:45:45;;;;;;;5.80;3.90;;;17.40;99.90;;;;;;4989270;28;20456;-65
2023/08/01 06:48:13;;;;;;;4.10;3.80;;;17.30;99.90;;;;;;4989174;28;20499;-65
2023/08/01 06:50:40;;;;;;;3.37;3.17;;;17.40;99.90;;;;;;4982119;28;20984;-65
2023/08/01 06:53:08;;;;;;;3.70;3.07;;;17.30;99.90;;;;;;4951060;28;20573;-65
2023/08/01 06:55:35;;;;;;;3.87;3.57;;;17.40;99.90;;;;;;4950735;28;20459;-65
2023/08/01 06:58:02;;;;;;;4.20;3.80;;;17.40;99.90;;;;;;4956824;28;20498;-65
2023/08/01 07:00:29;;;;;;;4.37;3.67;;;17.40;99.90;;;;;;4987924;28;20567;-65
2023/08/01 07:02:56;;;;;;;3.90;2.80;;;17.40;99.90;;;;;;4989583;28;20499;-65
2023/08/01 07:05:24;;;;;;;4.27;3.87;;;17.40;99.90;;;;;;4989515;28;20485;-65
2023/08/01 07:07:51;;;;;;;3.63;3.40;;;17.40;99.90;;;;;;4988625;28;20461;-65
2023/08/01 07:10:18;;;;;;;4.63;3.73;;;17.50;99.90;;;;;;4988709;28;20476;-65
2023/08/01 07:12:45;;;;;;;3.87;3.50;;;17.50;99.90;;;;;;4988552;28;20491;-66
2023/08/01 07:15:12;;;;;;;4.37;3.50;;;17.40;99.90;;;;;;4989145;28;20945;-65
2023/08/01 07:17:39;;;;;;;4.40;4.00;;;17.40;99.90;;;;;;4987725;28;20548;-65
2023/08/01 07:20:07;;;;;;;4.20;3.60;;;17.30;99.90;;;;;;4989119;28;20542;-65
2023/08/01 07:22:35;;;;;;;4.20;3.23;;;17.30;99.90;;;;;;4988764;28;20455;-65
2023/08/01 07:25:01;;;;;;;4.60;3.97;;;17.30;99.90;;;;;;4989085;28;20494;-65
2023/08/01 07:27:28;;;;;;;4.20;3.63;;;17.30;99.90;;;;;;4988176;28;20514;-65
2023/08/01 07:29:55;;;;;;;5.43;4.63;;;17.20;99.90;;;;;;4989203;28;20454;-65
2023/08/01 07:32:22;;;;;;;4.77;3.80;;;17.20;99.90;;;;;;4988944;28;20452;-65
2023/08/01 07:34:49;;;;;;;4.53;3.90;;;17.30;99.90;;;;;;4989039;28;20493;-65
2023/08/01 07:37:15;;;;;;;5.37;4.37;;;17.30;99.90;;;;;;4987952;28;20488;-65
2023/08/01 07:39:44;;;;;;;4.37;3.80;;;17.20;99.90;;;;;;4987264;28;20455;-65
2023/08/01 07:42:10;;;;;;;4.73;3.13;;;17.20;99.90;;;;;;4989070;28;20461;-65
2023/08/01 07:44:37;;;;;;;3.60;3.30;;;17.20;99.90;;;;;;4988450;28;20469;-65
2023/08/01 07:47:05;;;;;;;3.53;3.07;;;17.30;99.90;;;;;;4988022;28;20490;-65
2023/08/01 07:49:31;;;;;;;4.63;3.07;;;17.30;99.90;;;;;;4988748;28;20457;-65
2023/08/01 07:51:58;;;;;;;3.07;2.77;;;17.40;99.90;;;;;;4988675;28;20455;-66
2023/08/01 07:54:25;;;;;;;2.97;2.67;;;17.40;99.90;;;;;;4968444;28;20500;-66
2023/08/01 07:56:53;;;;;;;3.33;2.60;;;17.40;99.90;;;;;;4948697;28;20541;-65
2023/08/01 07:59:20;;;;;;;2.67;2.47;;;17.40;99.90;;;;;;4949575;28;20542;-65
2023/08/01 08:01:47;;;;;;;3.53;2.70;;;17.40;99.90;;;;;;4949335;28;20461;-65
2023/08/01 08:04:14;;;;;;;4.40;2.70;;;17.40;99.90;;;;;;4949689;28;20566;-66
2023/08/01 08:06:41;;;;;;;2.40;2.20;;;17.50;99.90;;;;;;4949125;28;20588;-66
2023/08/01 08:09:08;;;;;;;2.10;1.90;;;17.50;99.90;;;;;;4949620;28;20558;-65
2023/08/01 08:11:35;;;;;;;1.90;1.80;;;17.50;99.90;;;;;;4955322;28;20540;-65
2023/08/01 08:14:03;;;;;;;2.87;1.87;;;17.50;99.90;;;;;;4949168;28;21084;-65
2023/08/01 08:16:30;;;;;;;2.10;2.00;;;17.50;99.90;;;;;;4948583;28;20463;-65
2023/08/01 08:18:57;;;;;;;3.70;2.30;;;17.60;99.90;;;;;;4949748;28;20459;-65
2023/08/01 08:21:23;;;;;;;3.80;2.90;;;17.60;99.90;;;;;;4949574;28;20453;-65
2023/08/01 08:23:50;;;;;;;3.67;2.50;;;17.70;99.90;;;;;;4949395;28;20469;-65
2023/08/01 08:26:17;;;;;;;4.03;2.23;;;17.70;99.90;;;;;;4948943;28;20467;-65
2023/08/01 08:28:45;;;;;;;2.57;1.80;;;17.70;99.90;;;;;;4950422;28;20462;-65
2023/08/01 08:31:13;;;;;;;2.23;2.03;;;17.80;99.90;;;;;;4952823;28;20986;-66
2023/08/01 08:33:40;;;;;;;2.43;2.20;;;17.80;99.90;;;;;;4952270;28;20502;-65
2023/08/01 08:36:07;;;;;;;2.03;1.80;;;17.80;99.90;;;;;;4952097;28;20546;-65
2023/08/01 08:38:34;;;;;;;1.97;1.77;;;17.80;99.90;;;;;;4950788;28;20462;-65
2023/08/01 08:41:09;;;;;;;2.03;1.93;;;17.80;99.90;;;;;;4952893;28;20462;-65
2023/08/01 08:43:36;;;;;;;2.87;2.57;;;17.90;99.90;;;;;;4952887;28;20562;-66
2023/08/01 08:46:05;;;;;;;1.83;1.70;;;17.90;99.90;;;;;;4952067;28;20461;-66
2023/08/01 08:48:34;;;;;;;2.60;1.70;;;17.90;99.90;;;;;;4952709;28;20463;-65
2023/08/01 08:51:03;;;;;;;1.20;1.20;;;17.90;99.90;;;;;;4952158;28;20885;-66
2023/08/01 08:53:31;;;;;;;2.97;2.73;;;17.90;99.90;;;;;;4952522;28;20495;-65
2023/08/01 08:55:58;;;;;;;2.07;1.40;;;18.00;99.90;;;;;;4966025;28;20519;-65
2023/08/01 08:58:25;;;;;;;2.00;1.90;;;18.00;99.90;;;;;;4982715;28;20465;-65
2023/08/01 09:00:52;;;;;;;2.97;1.60;;;18.00;99.90;;;;;;4979531;28;20475;-65
2023/08/01 09:03:19;;;;;;;2.30;1.17;;;18.00;99.90;;;;;;4981183;28;20554;-65
2023/08/01 09:05:51;;;;;;;1.67;1.57;;;18.10;99.90;;;;;;4989369;28;20457;-65
2023/08/01 09:08:20;;;;;;;1.70;1.30;;;18.10;99.90;;;;;;4989429;28;20472;-65
2023/08/01 09:10:48;;;;;;;1.57;1.47;;;18.10;99.90;;;;;;4989889;28;21214;-66
2023/08/01 09:13:15;;;;;;;5.13;1.97;;;18.10;99.90;;;;;;4990872;28;20489;-66
2023/08/01 09:15:43;;;;;;;4.70;1.90;;;18.00;99.90;;;;;;4984063;28;20461;-66
2023/08/01 09:18:10;;;;;;;3.60;1.73;;;17.70;99.90;;;;;;4976690;28;20541;-65
2023/08/01 09:20:49;;;;;;;2.00;1.40;;;17.40;99.90;;;;;;4971841;28;20468;-65
2023/08/01 09:23:18;;;;;;;1.60;1.43;;;17.10;99.90;;;;;;4971555;28;20547;-64
2023/08/01 09:25:45;;;;;;;1.93;1.33;;;16.80;99.90;;;;;;4981395;28;20543;-64
2023/08/01 09:28:20;;;;;;;2.90;2.00;;;16.60;99.90;;;;;;4976460;28;20467;-64
2023/08/01 09:30:48;;;;;;;5.93;2.13;;;16.50;99.90;;;;;;4971171;28;20457;-64
2023/08/01 09:33:15;;;;;;;2.07;1.87;;;16.40;99.90;;;;;;4970898;28;20484;-64
2023/08/01 09:35:44;;;;;;;5.73;2.00;;;16.40;99.90;;;;;;4971361;28;20453;-64
2023/08/01 09:38:13;;;;;;;2.23;1.60;;;16.40;99.90;;;;;;4970853;28;20957;-65
2023/08/01 09:40:40;;;;;;;2.20;1.80;;;16.40;99.90;;;;;;4970338;28;20536;-64
2023/08/01 09:43:07;;;;;;;2.57;2.00;;;16.40;99.90;;;;;;4970627;28;20905;-64
2023/08/01 09:45:34;;;;;;;1.40;1.30;;;16.40;99.90;;;;;;4971618;28;20460;-64
2023/08/01 09:48:02;;;;;;;2.63;2.20;;;16.40;99.90;;;;;;4970134;28;20449;-64
2023/08/01 09:50:29;;;;;;;2.67;2.50;;;16.40;99.90;;;;;;4971193;28;20456;-64
2023/08/01 09:52:56;;;;;;;1.80;1.70;;;16.40;99.90;;;;;;4970581;28;20945;-64
2023/08/01 09:55:31;;;;;;;2.20;1.83;;;16.40;99.90;;;;;;4970782;28;20492;-63
2023/08/01 09:57:59;;;;;;;2.13;1.83;;;16.50;99.90;;;;;;4969756;28;20997;-64
2023/08/01 10:00:27;;;;;;;2.57;1.83;;;16.60;99.90;;;;;;4970743;28;20453;-63
2023/08/01 10:02:55;;;;;;;2.10;1.90;;;16.60;99.90;;;;;;4970169;28;20984;-64
2023/08/01 10:05:23;;;;;;;2.10;2.00;;;16.80;99.90;;;;;;4970641;28;20872;-64
2023/08/01 10:07:52;;;;;;;2.63;2.43;;;16.90;99.90;;;;;;4968651;28;20454;-64
2023/08/01 10:10:19;;;;;;;2.43;2.23;;;17.10;99.90;;;;;;4970240;28;20460;-64
2023/08/01 10:12:48;;;;;;;3.57;2.20;;;17.10;99.90;;;;;;4969944;28;20454;-64
2023/08/01 10:15:16;;;;;;;2.47;1.90;;;17.20;99.90;;;;;;4970252;28;20505;-64
2023/08/01 10:17:44;;;;;;;1.70;1.60;;;17.30;99.90;;;;;;4969457;28;20454;-64
2023/08/01 10:20:13;;;;;;;2.20;1.90;;;17.40;99.90;;;;;;4957728;28;20455;-64
2023/08/01 10:22:40;;;;;;;2.73;1.87;;;17.50;99.90;;;;;;4949980;28;20459;-64
2023/08/01 10:25:09;;;;;;;1.73;1.63;;;17.60;99.90;;;;;;4950811;28;20983;-64
2023/08/01 10:27:37;;;;;;;3.70;2.30;;;17.80;99.90;;;;;;4952722;28;20455;-65
2023/08/01 10:30:07;;;;;;;2.40;2.20;;;17.90;99.90;;;;;;4954026;28;20490;-64
2023/08/01 10:32:35;;;;;;;2.50;1.90;;;18.10;99.90;;;;;;4956900;28;20462;-64
2023/08/01 10:35:02;;;;;;;1.90;1.80;;;18.30;99.90;;;;;;4949760;28;21054;-64
2023/08/01 10:37:41;;;;;;;1.93;1.83;;;18.40;99.90;;;;;;4961033;28;20502;-64
2023/08/01 10:40:09;;;;;;;1.73;1.63;;;18.40;99.90;;;;;;4969563;28;20454;-64
2023/08/01 10:42:40;;;;;;;1.97;1.80;;;18.50;99.90;;;;;;4967657;28;20463;-64
2023/08/01 10:45:21;;;;;;;1.83;1.73;;;18.60;99.90;;;;;;4969293;28;20526;-64
2023/08/01 10:47:48;;;;;;;1.83;1.73;;;18.60;99.90;;;;;;4968939;28;20457;-64
2023/08/01 10:50:15;;;;;;;1.97;1.60;;;18.60;99.90;;;;;;4968914;28;20465;-64
2023/08/01 10:52:43;;;;;;;3.10;2.00;;;18.70;99.90;;;;;;4968315;28;20452;-64
2023/08/01 10:55:10;;;;;;;2.30;2.10;;;18.70;99.90;;;;;;4969148;28;20494;-64
2023/08/01 10:57:39;;;;;;;1.50;1.40;;;18.90;99.90;;;;;;4968461;28;20456;-64
2023/08/01 11:00:09;;;;;;;2.43;1.80;;;19.00;99.90;;;;;;4967972;28;20537;-64
2023/08/01 11:02:37;;;;;;;2.43;2.27;;;19.00;99.90;;;;;;4968890;28;20509;-64
2023/08/01 11:05:06;;;;;;;1.77;1.67;;;19.10;99.90;;;;;;4968464;28;20472;-64
2023/08/01 11:07:34;;;;;;;1.87;1.77;;;19.20;99.90;;;;;;4968407;28;20464;-65
2023/08/01 11:10:06;;;;;;;2.30;2.20;;;19.40;99.90;;;;;;4968493;28;20454;-65
2023/08/01 11:12:36;;;;;;;3.97;1.60;;;19.50;99.90;;;;;;4969042;28;20459;-65
2023/08/01 11:15:03;;;;;;;1.77;1.67;;;19.50;99.90;;;;;;4968719;28;20497;-64
2023/08/01 11:17:32;;;;;;;1.90;1.73;;;19.50;99.90;;;;;;4968308;28;20459;-64
2023/08/01 11:20:04;;;;;;;1.80;1.70;;;19.40;99.90;;;;;;4968566;28;20467;-64
2023/08/01 11:22:31;;;;;;;2.13;1.97;;;19.30;99.90;;;;;;4968640;28;20539;-64
2023/08/01 11:24:58;;;;;;;1.50;1.40;;;19.20;99.90;;;;;;4968635;28;20574;-64
2023/08/01 11:27:26;;;;;;;2.20;2.10;;;19.20;99.90;;;;;;4967783;28;20455;-65
2023/08/01 11:29:53;;;;;;;2.27;2.17;;;19.20;99.90;;;;;;4968802;28;20525;-65
2023/08/01 11:32:21;;;;;;;2.27;2.17;;;19.30;99.90;;;;;;4968398;28;20467;-65
2023/08/01 11:34:49;;;;;;;2.53;2.00;;;19.40;99.90;;;;;;4968696;28;20498;-65
2023/08/01 11:37:20;;;;;;;2.23;2.03;;;19.60;99.90;;;;;;4968341;28;20451;-65
2023/08/01 11:39:48;;;;;;;2.13;1.60;;;19.70;99.90;;;;;;4969270;28;20457;-65
2023/08/01 11:42:16;;;;;;;1.43;1.33;;;19.90;99.90;;;;;;4967176;28;20741;-65
2023/08/01 11:44:44;;;;;;;1.60;1.50;;;20.10;99.90;;;;;;4968937;28;20473;-65
2023/08/01 11:47:14;;;;;;;2.00;1.60;;;20.20;99.90;;;;;;4968145;28;20459;-65
2023/08/01 11:49:46;;;;;;;1.77;1.67;;;20.30;99.90;;;;;;4968569;28;20455;-65
2023/08/01 11:52:24;;;;;;;1.53;1.43;;;20.40;99.90;;;;;;4969106;28;20443;-64
2023/08/01 11:54:51;;;;;;;1.60;1.40;;;20.60;99.90;;;;;;4978996;28;20495;-65
2023/08/01 11:57:18;;;;;;;2.43;2.33;;;20.60;99.90;;;;;;4978939;28;20963;-65
2023/08/01 11:59:49;;;;;;;2.17;1.97;;;20.60;99.90;;;;;;4974147;28;20463;-65
2023/08/01 12:02:26;;;;;;;1.30;1.20;;;20.60;99.90;;;;;;4979725;28;21114;-65
2023/08/01 12:04:54;;;;;;;1.90;1.80;;;20.40;99.90;;;;;;4979430;28;20471;-65
2023/08/01 12:07:21;;;;;;;3.30;1.97;;;20.30;99.90;;;;;;4975702;28;20945;-65
2023/08/01 12:09:57;;;;;;;2.07;1.70;;;20.20;99.90;;;;;;4978110;28;20897;-65
2023/08/01 12:12:24;;;;;;;1.70;1.30;;;20.20;99.90;;;;;;4971965;28;20447;-65
2023/08/01 12:14:52;;;;;;;1.37;1.27;;;20.00;99.90;;;;;;4980299;28;20533;-65
2023/08/01 12:17:19;;;;;;;1.93;1.60;;;19.90;99.90;;;;;;4972090;28;20535;-65
2023/08/01 12:19:46;;;;;;;1.50;1.40;;;19.80;99.90;;;;;;4972894;28;20969;-65
2023/08/01 12:22:14;;;;;;;2.13;1.80;;;19.80;99.90;;;;;;4977165;28;20451;-65
2023/08/01 12:24:41;;;;;;;1.63;1.50;;;19.80;99.90;;;;;;4974525;28;20484;-65
2023/08/01 12:27:10;;;;;;;1.90;1.77;;;19.80;99.90;;;;;;4975487;28;20462;-65
2023/08/01 12:29:37;;;;;;;1.60;1.50;;;19.90;99.90;;;;;;4973407;28;20467;-65
2023/08/01 12:32:06;;;;;;;1.47;1.37;;;20.10;99.90;;;;;;4979580;28;20536;-65
2023/08/01 12:34:33;;;;;;;1.80;1.20;;;20.40;99.90;;;;;;4971073;28;20506;-65
2023/08/01 12:37:00;;;;;;;2.77;1.40;;;20.60;99.90;;;;;;4979232;28;20452;-65
2023/08/01 12:39:27;;;;;;;1.50;1.40;;;20.90;99.90;;;;;;4972734;28;20463;-66
2023/08/01 12:41:53;;;;;;;2.67;1.77;;;21.20;99.90;;;;;;4975897;28;20447;-65
2023/08/01 12:44:23;;;;;;;1.60;1.50;;;21.50;99.90;;;;;;4965125;28;20477;-65
2023/08/01 12:46:50;;;;;;;1.50;1.40;;;21.70;99.90;;;;;;4979634;28;21033;-66